Time;durP1;ratioP1;P1;durP2;ratioP2;P2;SDS_P1;SDS_P2;PMS_P1;PMS_P2;Temp;Humidity;BMP_temperature;BMP_pressure;BME280_temperature;BME280_humidity;BME280_pressure;Samples;Min_cycle;Max_cycle;Signal;HPM_P1;HPM_P2
2021/08/29 00:01:25;;;;;;;16.60;14.90;;;;;;;19.32;84.98;93747.19;827470;71;32751;-77
2021/08/29 00:16:19;;;;;;;20.27;15.63;;;;;;;19.29;84.73;93736.49;828104;71;30762;-79
2021/08/29 00:31:29;;;;;;;19.27;15.80;;;;;;;19.26;85.46;93739.86;834010;71;30421;-79
2021/08/29 00:46:33;;;;;;;21.75;17.10;;;;;;;19.32;85.79;93737.88;826971;71;33381;-81
2021/08/29 01:01:22;;;;;;;21.10;17.37;;;;;;;19.44;85.53;93753.38;828226;71;32616;-77
2021/08/29 01:16:23;;;;;;;22.73;17.98;;;;;;;19.45;85.33;93740.30;828049;71;30335;-78
2021/08/29 01:31:38;;;;;;;25.32;19.75;;;;;;;19.47;85.06;93745.45;833976;71;32766;-82
2021/08/29 01:46:21;;;;;;;22.17;18.27;;;;;;;19.48;85.01;93770.92;828053;71;31661;-75
2021/08/29 02:01:15;;;;;;;20.30;16.75;;;;;;;19.48;85.33;93772.25;833976;71;29755;-78
2021/08/29 02:16:18;;;;;;;21.30;16.75;;;;;;;19.53;85.50;93769.28;828241;71;30195;-75
2021/08/29 02:31:13;;;;;;;20.32;16.45;;;;;;;19.64;85.78;93760.66;828254;71;30800;-78
2021/08/29 02:46:17;;;;;;;19.12;16.73;;;;;;;19.70;85.10;93779.92;827411;71;33170;-78
2021/08/29 03:16:08;;;;;;;10.70;8.85;;;;;;;19.45;90.49;93786.30;828240;71;29659;-81
2021/08/29 03:31:08;;;;;;;13.43;9.80;;;;;;;18.65;93.60;93744.32;828271;71;29756;-77
2021/08/29 03:46:17;;;;;;;15.50;11.60;;;;;;;18.81;96.65;93756.92;828095;71;30806;-81
2021/08/29 04:01:15;;;;;;;9.73;7.47;;;;;;;18.89;95.75;93779.06;827960;71;30266;-77
2021/08/29 04:16:19;;;;;;;7.80;7.10;;;;;;;18.80;94.00;93788.06;833740;71;33125;-79
2021/08/29 04:31:24;;;;;;;11.48;10.10;;;;;;;20.39;91.73;93800.06;827519;71;34004;-78
2021/08/29 04:46:32;;;;;;;9.83;8.13;;;;;;;22.36;75.53;93798.55;828014;71;33191;-78
2021/08/29 05:01:31;;;;;;;8.77;7.97;;;;;;;22.91;70.17;93796.09;827483;71;32646;-78
2021/08/29 05:16:40;;;;;;;9.73;8.93;;;;;;;23.24;67.21;93774.66;834096;71;32664;-77
2021/08/29 05:47:05;;;;;;;13.10;11.90;;;;;;;22.15;69.56;93792.55;761205;72;33326;-79
2021/08/29 06:31:42;;;;;;;16.60;14.60;;;;;;;22.38;69.26;93774.09;800888;74;33522;-77
2021/08/29 06:46:26;;;;;;;14.87;13.33;;;;;;;23.13;67.04;93802.18;828007;71;32798;-75
2021/08/29 07:01:17;;;;;;;13.87;12.57;;;;;;;23.38;65.22;93801.39;830138;71;29886;-76
2021/08/29 07:16:21;;;;;;;15.47;13.97;;;;;;;23.34;65.34;93797.97;827459;71;32698;-78
2021/08/29 07:31:18;;;;;;;16.30;14.57;;;;;;;23.32;65.63;93806.38;827671;71;32682;-76
2021/08/29 07:46:11;;;;;;;15.20;13.63;;;;;;;23.13;65.24;93804.86;828258;71;30702;-75
2021/08/29 07:47:16;;;;;;;14.97;13.47;;;;;;;23.09;65.62;93811.37;808646;73;26409;-77
2021/08/29 08:01:29;;;;;;;18.30;14.17;;;;;;;22.97;65.74;93786.52;827778;71;32707;-78
2021/08/29 08:16:21;;;;;;;15.90;13.67;;;;;;;23.49;64.35;93800.02;830126;71;30555;-77
2021/08/29 08:31:34;;;;;;;14.70;13.30;;;;;;;23.75;63.95;93805.48;827170;71;29496;-76
2021/08/29 08:46:24;;;;;;;15.77;13.87;;;;;;;23.45;65.62;93806.72;834216;71;30626;-75
2021/08/29 09:16:16;;;;;;;15.83;14.23;;;;;;;23.98;65.17;93788.95;829137;71;29963;-80
2021/08/29 09:31:51;;;;;;;15.40;13.90;;;;;;;24.83;64.92;93776.73;827444;71;33420;-78
2021/08/29 09:46:32;;;;;;;15.17;13.77;;;;;;;24.69;64.19;93780.30;836768;70;32858;-77
2021/08/29 10:01:12;;;;;;;13.00;11.70;;;;;;;24.85;62.72;93777.86;828389;71;29716;-79
2021/08/29 10:16:09;;;;;;;14.50;13.00;;;;;;;24.57;63.02;93764.88;833938;71;30110;-78
2021/08/29 10:31:11;;;;;;;14.83;13.30;;;;;;;24.49;64.55;93755.88;794042;74;29525;-77
2021/08/29 10:46:22;;;;;;;19.13;17.20;;;;;;;24.14;63.66;93757.07;828014;71;30061;-76
2021/08/29 11:01:36;;;;;;;47.43;41.33;;;;;;;24.48;64.72;93747.08;833968;71;32850;-75
2021/08/29 11:16:20;;;;;;;19.40;17.50;;;;;;;25.05;62.81;93738.38;833996;71;29652;-76
2021/08/29 11:31:51;;;;;;;21.27;18.97;;;;;;;25.10;62.56;93740.06;827353;71;32723;-76
2021/08/29 11:46:22;;;;;;;17.20;15.40;;;;;;;25.44;61.23;93739.91;828172;71;32588;-75
2021/08/29 12:01:11;;;;;;;16.43;14.83;;;;;;;;;;828318;71;30118;-75
2021/08/29 12:02:14;;;;;;;16.57;14.90;;;;;;;;;;808674;73;27123;-77
2021/08/29 12:16:10;;;;;;;16.93;15.23;;;;;;;26.12;58.07;93690.09;828285;71;30800;-76
2021/08/29 12:31:30;;;;;;;16.17;14.63;;;;;;;26.37;57.12;93676.25;833761;71;33227;-76
2021/08/29 12:46:41;;;;;;;16.87;15.27;;;;;;;;;;827382;71;32776;-76
2021/08/29 13:01:23;;;;;;;16.83;15.03;;;;;;;25.90;58.33;93656.62;828506;71;32958;-76
2021/08/29 13:16:24;;;;;;;15.27;13.80;;;;;;;;;;827086;71;32793;-74
2021/08/29 13:31:21;;;;;;;18.47;16.57;;;;;;;25.43;59.75;93624.23;827344;71;33221;-78
2021/08/29 13:46:16;;;;;;;19.17;15.20;;;;;;;24.53;63.06;93638.62;828199;71;30134;-76
2021/08/29 14:01:10;;;;;;;17.17;15.40;;;;;;;25.01;61.30;93631.03;828120;71;29977;-75
2021/08/29 14:16:24;;;;;;;17.63;15.77;;;;;;;24.78;62.12;93624.38;828174;71;30044;-76
2021/08/29 14:31:24;;;;;;;18.70;14.70;;;;;;;24.81;62.42;93615.34;827936;71;31462;-77
2021/08/29 14:46:19;;;;;;;18.40;16.40;;;;;;;25.12;61.88;93616.13;833873;71;29703;-79
2021/08/29 15:16:08;;;;;;;17.73;15.97;;;;;;;25.10;61.58;93623.83;828221;71;30122;-77
2021/08/29 15:31:09;;;;;;;17.20;15.50;;;;;;;24.68;63.40;93628.53;828148;71;30011;-79
2021/08/29 15:46:09;;;;;;;17.87;15.97;;;;;;;24.45;65.35;93649.95;827844;71;30166;-78
2021/08/29 16:01:26;;;;;;;15.50;14.00;;;;;;;24.46;65.21;93666.25;834164;71;31714;-73
2021/08/29 16:16:19;;;;;;;11.70;10.50;;;;;;;23.71;63.41;93713.06;833853;71;29534;-78
2021/08/29 16:31:23;;;;;;;10.93;9.83;;;;;;;23.65;63.14;93701.23;828441;71;32776;-78
2021/08/29 16:46:19;;;;;;;10.30;9.30;;;;;;;23.56;61.42;93755.23;828014;71;32318;-75
2021/08/29 17:01:14;;;;;;;12.20;10.30;;;;;;;23.54;66.59;93792.91;828147;71;30012;-78
2021/08/29 17:16:12;;;;;;;12.80;11.50;;;;;;;21.81;71.95;93799.50;828281;71;30164;-79
2021/08/29 17:17:16;;;;;;;11.70;10.60;;;;;;;21.69;72.33;93791.06;808600;73;26590;-76
2021/08/29 17:31:16;;;;;;;14.97;13.43;;;;;;;22.66;77.26;93804.09;835192;71;33001;-76
2021/08/29 17:46:27;;;;;;;13.87;12.50;;;;;;;23.71;70.96;93845.68;828127;71;32335;-78
2021/08/29 18:01:35;;;;;;;12.77;11.50;;;;;;;24.02;66.74;93859.96;829006;71;29536;-77
2021/08/29 18:16:21;;;;;;;12.60;11.40;;;;;;;23.87;66.78;93912.27;824719;70;31634;-78
2021/08/29 18:31:16;;;;;;;145.83;129.43;;;;;;;23.93;65.30;93904.02;834019;71;30183;-77
2021/08/29 18:46:20;;;;;;;14.93;13.43;;;;;;;23.87;64.67;93922.23;835213;71;31765;-76
2021/08/29 19:01:11;;;;;;;11.90;10.80;;;;;;;23.79;65.00;93918.22;828353;71;28352;-77
2021/08/29 19:16:16;;;;;;;11.80;10.60;;;;;;;23.88;63.98;93934.47;828029;71;29242;-75
2021/08/29 19:31:33;;;;;;;10.20;9.17;;;;;;;23.83;62.75;93949.03;827349;71;31716;-76
2021/08/29 19:46:26;;;;;;;10.20;9.23;;;;;;;23.76;61.91;93935.05;827291;71;31723;-76
2021/08/29 20:01:24;;;;;;;10.17;9.17;;;;;;;23.83;61.11;93943.67;833965;71;32223;-77
2021/08/29 20:16:26;;;;;;;11.07;10.07;;;;;;;23.85;60.97;93950.75;833922;71;28675;-77
2021/08/29 21:16:34;;;;;;;10.90;9.90;;;;;;;22.43;59.95;93962.22;809374;72;31823;-78
2021/08/29 21:31:10;;;;;;;10.40;9.40;;;;;;;20.50;64.90;93962.74;828821;71;28675;-78
2021/08/29 22:16:27;;;;;;;12.40;10.00;;;;;;;18.14;72.87;93999.00;834468;71;32227;-77
2021/08/29 22:32:07;;;;;;;10.75;9.75;;;;;;;17.77;74.43;94007.28;792551;71;32118;-77
2021/08/29 23:01:45;;;;;;;11.40;9.28;;;;;;;17.33;75.43;94004.73;834122;71;32741;-79
2021/08/29 23:16:10;;;;;;;12.63;10.78;;;;;;;17.14;76.15;94018.11;828180;71;29657;-75
